createdAt,value
2023-04-27T00:02:14.127Z,1.80
2023-04-27T00:04:45.035Z,1.90
2023-04-27T00:07:16.159Z,1.80
2023-04-27T00:09:46.558Z,2.50
2023-04-27T00:12:16.775Z,2.60
2023-04-27T00:14:47.166Z,2.50
2023-04-27T00:17:17.305Z,2.00
2023-04-27T00:19:47.601Z,2.60
2023-04-27T00:22:17.525Z,3.00
2023-04-27T00:24:47.526Z,2.40
2023-04-27T00:27:17.545Z,2.60
2023-04-27T00:29:47.887Z,3.50
2023-04-27T00:32:17.970Z,2.90
2023-04-27T00:34:50.525Z,2.10
2023-04-27T00:37:20.448Z,3.30
2023-04-27T00:39:50.877Z,2.20
2023-04-27T00:42:21.630Z,2.70
2023-04-27T00:44:54.560Z,2.80
2023-04-27T00:47:24.596Z,2.30
2023-04-27T00:49:54.651Z,2.70
2023-04-27T00:52:24.509Z,2.30
2023-04-27T00:54:54.820Z,1.70
2023-04-27T00:57:24.730Z,3.30
2023-04-27T00:59:54.854Z,3.00
2023-04-27T01:02:24.907Z,2.50
2023-04-27T01:04:54.856Z,3.30
2023-04-27T01:07:27.566Z,2.50
2023-04-27T01:09:57.666Z,2.60
2023-04-27T01:12:27.821Z,3.20
2023-04-27T01:14:57.676Z,2.40
2023-04-27T01:17:27.795Z,2.90
2023-04-27T01:19:59.700Z,4.80
2023-04-27T01:22:29.668Z,2.70
2023-04-27T01:24:59.528Z,2.70
2023-04-27T01:27:29.537Z,2.80
2023-04-27T01:29:59.440Z,2.90
2023-04-27T01:32:29.356Z,3.50
2023-04-27T01:34:59.283Z,2.20
2023-04-27T01:37:29.449Z,1.80
2023-04-27T01:39:59.823Z,1.90
2023-04-27T01:42:31.940Z,1.70
2023-04-27T01:45:02.085Z,2.60
2023-04-27T01:47:34.972Z,1.60
2023-04-27T01:50:05.309Z,1.70
2023-04-27T01:52:35.644Z,2.10
2023-04-27T01:55:06.760Z,2.10
2023-04-27T01:57:37.156Z,1.30
2023-04-27T02:00:09.716Z,1.80
2023-04-27T02:02:53.938Z,2.40
2023-04-27T02:05:25.916Z,1.90
2023-04-27T02:07:56.258Z,1.90
2023-04-27T02:10:26.973Z,2.10
2023-04-27T02:12:59.528Z,2.20
2023-04-27T02:15:29.528Z,1.10
2023-04-27T02:17:59.529Z,1.90
2023-04-27T02:20:31.407Z,2.30
2023-04-27T02:23:03.759Z,1.70
2023-04-27T02:25:35.955Z,2.90
2023-04-27T02:28:06.364Z,1.80
2023-04-27T02:30:37.259Z,1.30
2023-04-27T02:33:07.443Z,0.80
2023-04-27T02:35:37.531Z,1.00
2023-04-27T02:38:07.750Z,1.90
2023-04-27T02:40:40.083Z,1.50
2023-04-27T02:43:10.693Z,1.30
2023-04-27T02:45:41.606Z,1.30
2023-04-27T02:48:12.437Z,1.40
2023-04-27T02:50:43.287Z,1.00
2023-04-27T02:53:13.955Z,1.30
2023-04-27T02:55:48.936Z,1.70
2023-04-27T02:58:19.975Z,2.30
2023-04-27T03:00:53.356Z,1.30
2023-04-27T03:03:23.554Z,1.20
2023-04-27T03:05:53.716Z,1.50
2023-04-27T03:08:24.797Z,3.30
2023-04-27T03:10:54.675Z,1.50
2023-04-27T03:13:24.755Z,2.00
2023-04-27T03:15:55.287Z,0.90
2023-04-27T03:18:25.483Z,2.90
2023-04-27T03:20:55.391Z,1.60
2023-04-27T03:23:25.826Z,1.80
2023-04-27T03:25:56.805Z,2.20
2023-04-27T03:28:26.853Z,1.20
2023-04-27T03:30:58.371Z,1.70
2023-04-27T03:33:29.801Z,2.10
2023-04-27T03:35:59.978Z,1.80
2023-04-27T03:38:30.164Z,3.00
2023-04-27T03:41:00.421Z,2.10
2023-04-27T03:43:30.596Z,1.30
2023-04-27T03:46:00.796Z,2.80
2023-04-27T03:48:31.305Z,2.70
2023-04-27T03:51:02.021Z,2.20
2023-04-27T03:53:32.262Z,1.40
2023-04-27T03:56:03.726Z,2.00
2023-04-27T03:58:34.000Z,5.30
2023-04-27T04:01:34.199Z,3.70
2023-04-27T04:04:04.270Z,1.60
2023-04-27T04:06:34.955Z,1.30
2023-04-27T04:09:04.936Z,1.20
2023-04-27T04:11:35.257Z,1.70
2023-04-27T04:14:05.992Z,2.10
2023-04-27T04:16:36.408Z,2.90
2023-04-27T04:19:06.994Z,1.90
2023-04-27T04:21:36.915Z,2.50
2023-04-27T04:24:07.709Z,1.60
2023-04-27T04:26:38.772Z,1.20
2023-04-27T04:29:11.105Z,1.40
2023-04-27T04:31:41.483Z,1.40
2023-04-27T04:34:12.976Z,1.70
2023-04-27T04:36:44.335Z,0.70
2023-04-27T04:39:14.947Z,2.00
2023-04-27T04:41:46.533Z,1.70
2023-04-27T04:44:16.544Z,2.50
2023-04-27T04:46:47.828Z,2.30
2023-04-27T04:49:17.740Z,1.90
2023-04-27T04:51:47.885Z,1.90
2023-04-27T04:54:17.736Z,1.90
2023-04-27T04:56:47.953Z,1.40
2023-04-27T04:59:18.036Z,1.50
2023-04-27T05:01:47.954Z,1.50
2023-04-27T05:04:18.791Z,1.40
2023-04-27T05:06:48.953Z,2.50
2023-04-27T05:09:19.044Z,1.30
2023-04-27T05:11:48.915Z,3.70
2023-04-27T05:14:18.812Z,2.20
2023-04-27T05:16:49.517Z,1.80
2023-04-27T05:19:20.851Z,1.20
2023-04-27T05:21:51.166Z,1.40
2023-04-27T05:24:21.390Z,2.10
2023-04-27T05:26:51.347Z,1.60
2023-04-27T05:29:21.775Z,1.80
2023-04-27T05:31:52.009Z,3.80
2023-04-27T05:34:22.108Z,2.00
2023-04-27T05:40:12.524Z,2.00
2023-04-27T05:42:42.854Z,1.80
2023-04-27T05:45:13.380Z,2.90
2023-04-27T05:47:43.606Z,2.30
2023-04-27T05:50:14.112Z,2.30
2023-04-27T05:52:44.376Z,2.50
2023-04-27T05:55:14.463Z,4.30
2023-04-27T05:57:44.743Z,1.60
2023-04-27T06:00:19.713Z,3.70
2023-04-27T06:02:50.131Z,2.20
2023-04-27T06:05:20.617Z,2.20
2023-04-27T06:07:50.627Z,1.40
2023-04-27T06:10:21.035Z,3.70
2023-04-27T06:12:51.150Z,1.90
2023-04-27T06:15:21.167Z,1.90
2023-04-27T06:17:51.572Z,2.00
2023-04-27T06:20:21.959Z,2.20
2023-04-27T06:22:52.064Z,4.00
2023-04-27T23:13:13.142Z,6.20
2023-04-27T23:15:43.336Z,3.70
2023-04-27T23:18:13.689Z,7.80
2023-04-27T23:20:43.978Z,3.80
2023-04-27T23:23:14.326Z,5.70
2023-04-27T23:25:44.221Z,3.60
2023-04-27T23:28:14.540Z,4.90
2023-04-27T23:30:44.914Z,4.60
2023-04-27T23:33:15.008Z,5.50
2023-04-27T23:35:44.906Z,6.40
2023-04-27T23:38:15.066Z,5.10
2023-04-27T23:40:45.043Z,3.50
2023-04-27T23:43:15.032Z,4.30
2023-04-27T23:45:50.853Z,4.70
2023-04-27T23:48:21.243Z,5.10
2023-04-27T23:50:55.066Z,4.30
2023-04-27T23:53:25.418Z,6.20
2023-04-27T23:55:55.417Z,6.10
2023-04-27T23:58:26.326Z,6.10
